sensor_id;sensor_type;location;lat;lon;timestamp;P1;durP1;ratioP1;P2;durP2;ratioP2
44746;SDS011;30472;49.490;10.972;2023-09-19T00:00:19;4.23;;;1.87;;
44746;SDS011;30472;49.490;10.972;2023-09-19T00:02:55;1.80;;;1.50;;
44746;SDS011;30472;49.490;10.972;2023-09-19T00:05:24;4.17;;;1.80;;
44746;SDS011;30472;49.490;10.972;2023-09-19T00:07:53;2.33;;;1.70;;
44746;SDS011;30472;49.490;10.972;2023-09-19T00:10:22;1.70;;;1.60;;
44746;SDS011;30472;49.490;10.972;2023-09-19T00:12:49;3.47;;;1.50;;
44746;SDS011;30472;49.490;10.972;2023-09-19T00:15:17;3.03;;;1.30;;
44746;SDS011;30472;49.490;10.972;2023-09-19T00:17:43;2.47;;;1.50;;
44746;SDS011;30472;49.490;10.972;2023-09-19T00:20:09;2.97;;;1.40;;
44746;SDS011;30472;49.490;10.972;2023-09-19T00:22:41;2.57;;;1.57;;
44746;SDS011;30472;49.490;10.972;2023-09-19T00:25:07;2.80;;;1.50;;
44746;SDS011;30472;49.490;10.972;2023-09-19T00:27:34;5.43;;;1.90;;
44746;SDS011;30472;49.490;10.972;2023-09-19T00:30:00;2.70;;;1.70;;
44746;SDS011;30472;49.490;10.972;2023-09-19T00:32:26;1.90;;;1.40;;
44746;SDS011;30472;49.490;10.972;2023-09-19T00:34:57;1.57;;;1.30;;
44746;SDS011;30472;49.490;10.972;2023-09-19T00:37:22;2.10;;;1.50;;
44746;SDS011;30472;49.490;10.972;2023-09-19T00:39:48;1.80;;;1.50;;
44746;SDS011;30472;49.490;10.972;2023-09-19T00:42:18;3.30;;;1.60;;
44746;SDS011;30472;49.490;10.972;2023-09-19T00:44:47;3.20;;;1.77;;
44746;SDS011;30472;49.490;10.972;2023-09-19T00:47:12;2.80;;;1.40;;
44746;SDS011;30472;49.490;10.972;2023-09-19T00:49:45;1.73;;;1.50;;
44746;SDS011;30472;49.490;10.972;2023-09-19T00:52:17;3.70;;;1.40;;
44746;SDS011;30472;49.490;10.972;2023-09-19T00:54:47;2.43;;;1.43;;
44746;SDS011;30472;49.490;10.972;2023-09-19T00:57:13;1.50;;;1.40;;
44746;SDS011;30472;49.490;10.972;2023-09-19T00:59:44;3.23;;;1.70;;
44746;SDS011;30472;49.490;10.972;2023-09-19T01:02:14;5.00;;;2.00;;
44746;SDS011;30472;49.490;10.972;2023-09-19T01:04:41;2.57;;;1.60;;
44746;SDS011;30472;49.490;10.972;2023-09-19T01:07:07;3.00;;;1.70;;
44746;SDS011;30472;49.490;10.972;2023-09-19T01:09:33;2.57;;;1.60;;
44746;SDS011;30472;49.490;10.972;2023-09-19T01:12:01;1.07;;;1.00;;
44746;SDS011;30472;49.490;10.972;2023-09-19T01:14:31;1.97;;;1.50;;
44746;SDS011;30472;49.490;10.972;2023-09-19T01:17:25;3.83;;;1.80;;
44746;SDS011;30472;49.490;10.972;2023-09-19T01:22:46;4.17;;;1.73;;
44746;SDS011;30472;49.490;10.972;2023-09-19T01:25:32;2.23;;;1.40;;
44746;SDS011;30472;49.490;10.972;2023-09-19T01:28:20;3.00;;;1.80;;
44746;SDS011;30472;49.490;10.972;2023-09-19T01:31:06;2.10;;;1.90;;
44746;SDS011;30472;49.490;10.972;2023-09-19T01:33:54;1.87;;;1.60;;
44746;SDS011;30472;49.490;10.972;2023-09-19T01:36:30;2.30;;;1.90;;
44746;SDS011;30472;49.490;10.972;2023-09-19T01:39:00;3.73;;;1.60;;
44746;SDS011;30472;49.490;10.972;2023-09-19T01:44:30;3.00;;;1.53;;
44746;SDS011;30472;49.490;10.972;2023-09-19T01:47:08;3.67;;;2.50;;
44746;SDS011;30472;49.490;10.972;2023-09-19T01:49:52;3.50;;;2.37;;
44746;SDS011;30472;49.490;10.972;2023-09-19T01:52:26;10.80;;;8.17;;
44746;SDS011;30472;49.490;10.972;2023-09-19T01:55:00;8.90;;;5.97;;
44746;SDS011;30472;49.490;10.972;2023-09-19T01:57:34;10.57;;;5.67;;
44746;SDS011;30472;49.490;10.972;2023-09-19T02:00:06;8.17;;;6.57;;
44746;SDS011;30472;49.490;10.972;2023-09-19T02:02:37;5.67;;;3.63;;
44746;SDS011;30472;49.490;10.972;2023-09-19T02:05:04;4.07;;;2.03;;
44746;SDS011;30472;49.490;10.972;2023-09-19T02:07:30;1.80;;;1.60;;
44746;SDS011;30472;49.490;10.972;2023-09-19T02:10:00;3.83;;;2.47;;
44746;SDS011;30472;49.490;10.972;2023-09-19T02:12:28;2.73;;;1.70;;
44746;SDS011;30472;49.490;10.972;2023-09-19T02:14:55;3.27;;;1.63;;
44746;SDS011;30472;49.490;10.972;2023-09-19T02:17:23;2.10;;;1.40;;
44746;SDS011;30472;49.490;10.972;2023-09-19T02:19:51;2.37;;;1.60;;
44746;SDS011;30472;49.490;10.972;2023-09-19T02:22:17;2.80;;;1.77;;
44746;SDS011;30472;49.490;10.972;2023-09-19T02:24:43;3.60;;;2.83;;
44746;SDS011;30472;49.490;10.972;2023-09-19T02:27:09;1.73;;;1.60;;
44746;SDS011;30472;49.490;10.972;2023-09-19T02:29:37;27.53;;;20.27;;
44746;SDS011;30472;49.490;10.972;2023-09-19T02:32:03;24.90;;;17.70;;
44746;SDS011;30472;49.490;10.972;2023-09-19T02:34:28;14.10;;;9.60;;
44746;SDS011;30472;49.490;10.972;2023-09-19T02:36:54;10.13;;;7.30;;
44746;SDS011;30472;49.490;10.972;2023-09-19T02:39:21;9.03;;;6.57;;
44746;SDS011;30472;49.490;10.972;2023-09-19T02:41:46;9.17;;;6.60;;
44746;SDS011;30472;49.490;10.972;2023-09-19T02:44:12;3.93;;;3.23;;
44746;SDS011;30472;49.490;10.972;2023-09-19T02:46:39;2.37;;;1.50;;
44746;SDS011;30472;49.490;10.972;2023-09-19T02:49:05;4.83;;;1.53;;
44746;SDS011;30472;49.490;10.972;2023-09-19T02:51:31;4.63;;;1.40;;
44746;SDS011;30472;49.490;10.972;2023-09-19T02:53:58;1.83;;;1.37;;
44746;SDS011;30472;49.490;10.972;2023-09-19T02:56:24;2.93;;;1.47;;
44746;SDS011;30472;49.490;10.972;2023-09-19T02:58:50;2.03;;;1.40;;
44746;SDS011;30472;49.490;10.972;2023-09-19T03:01:16;3.03;;;1.43;;
44746;SDS011;30472;49.490;10.972;2023-09-19T03:03:43;4.60;;;1.60;;
44746;SDS011;30472;49.490;10.972;2023-09-19T03:06:10;2.13;;;1.50;;
44746;SDS011;30472;49.490;10.972;2023-09-19T03:08:36;4.53;;;1.70;;
44746;SDS011;30472;49.490;10.972;2023-09-19T03:11:04;2.63;;;1.33;;
44746;SDS011;30472;49.490;10.972;2023-09-19T03:13:31;3.97;;;1.73;;
44746;SDS011;30472;49.490;10.972;2023-09-19T03:15:57;2.10;;;1.40;;
44746;SDS011;30472;49.490;10.972;2023-09-19T03:18:23;4.30;;;1.47;;
44746;SDS011;30472;49.490;10.972;2023-09-19T03:20:55;2.30;;;1.80;;
44746;SDS011;30472;49.490;10.972;2023-09-19T03:23:21;1.63;;;1.50;;
44746;SDS011;30472;49.490;10.972;2023-09-19T03:25:47;3.67;;;1.80;;
44746;SDS011;30472;49.490;10.972;2023-09-19T03:28:13;1.90;;;1.30;;
44746;SDS011;30472;49.490;10.972;2023-09-19T03:30:40;3.93;;;1.60;;
44746;SDS011;30472;49.490;10.972;2023-09-19T03:33:06;1.70;;;1.60;;
44746;SDS011;30472;49.490;10.972;2023-09-19T03:35:31;1.87;;;1.37;;
44746;SDS011;30472;49.490;10.972;2023-09-19T03:37:57;1.80;;;1.20;;
44746;SDS011;30472;49.490;10.972;2023-09-19T03:40:23;2.33;;;1.37;;
44746;SDS011;30472;49.490;10.972;2023-09-19T03:42:48;2.97;;;1.53;;
44746;SDS011;30472;49.490;10.972;2023-09-19T03:45:14;3.10;;;1.40;;
44746;SDS011;30472;49.490;10.972;2023-09-19T03:47:41;4.23;;;1.57;;
44746;SDS011;30472;49.490;10.972;2023-09-19T03:50:07;1.63;;;1.40;;
44746;SDS011;30472;49.490;10.972;2023-09-19T03:52:35;3.37;;;1.50;;
44746;SDS011;30472;49.490;10.972;2023-09-19T03:55:01;2.53;;;1.83;;
44746;SDS011;30472;49.490;10.972;2023-09-19T03:57:29;3.00;;;1.80;;
44746;SDS011;30472;49.490;10.972;2023-09-19T03:59:55;2.37;;;1.40;;
44746;SDS011;30472;49.490;10.972;2023-09-19T04:02:21;1.73;;;1.50;;
44746;SDS011;30472;49.490;10.972;2023-09-19T04:04:52;3.53;;;1.70;;
44746;SDS011;30472;49.490;10.972;2023-09-19T04:07:18;1.83;;;1.20;;
44746;SDS011;30472;49.490;10.972;2023-09-19T04:09:47;4.00;;;1.40;;
44746;SDS011;30472;49.490;10.972;2023-09-19T04:12:14;2.03;;;1.63;;
44746;SDS011;30472;49.490;10.972;2023-09-19T04:14:42;5.20;;;1.80;;
44746;SDS011;30472;49.490;10.972;2023-09-19T04:17:07;2.03;;;1.60;;
44746;SDS011;30472;49.490;10.972;2023-09-19T04:19:33;1.87;;;1.63;;
44746;SDS011;30472;49.490;10.972;2023-09-19T04:21:58;3.43;;;1.60;;
44746;SDS011;30472;49.490;10.972;2023-09-19T04:24:24;1.50;;;1.37;;
44746;SDS011;30472;49.490;10.972;2023-09-19T04:26:49;2.43;;;1.67;;
44746;SDS011;30472;49.490;10.972;2023-09-19T04:29:15;1.90;;;1.43;;
44746;SDS011;30472;49.490;10.972;2023-09-19T04:31:40;3.73;;;1.60;;
44746;SDS011;30472;49.490;10.972;2023-09-19T04:34:09;3.03;;;1.60;;
44746;SDS011;30472;49.490;10.972;2023-09-19T04:36:39;2.10;;;1.30;;
44746;SDS011;30472;49.490;10.972;2023-09-19T04:39:05;3.07;;;1.47;;
44746;SDS011;30472;49.490;10.972;2023-09-19T04:41:30;2.37;;;1.27;;
44746;SDS011;30472;49.490;10.972;2023-09-19T04:43:56;2.03;;;1.37;;
44746;SDS011;30472;49.490;10.972;2023-09-19T04:46:22;7.87;;;1.87;;
44746;SDS011;30472;49.490;10.972;2023-09-19T04:48:47;2.30;;;1.20;;
44746;SDS011;30472;49.490;10.972;2023-09-19T04:51:13;2.80;;;1.37;;
44746;SDS011;30472;49.490;10.972;2023-09-19T04:53:40;2.93;;;1.23;;
44746;SDS011;30472;49.490;10.972;2023-09-19T04:56:06;2.33;;;1.37;;
44746;SDS011;30472;49.490;10.972;2023-09-19T04:58:32;6.57;;;1.40;;
44746;SDS011;30472;49.490;10.972;2023-09-19T05:00:58;2.77;;;1.30;;
44746;SDS011;30472;49.490;10.972;2023-09-19T05:03:24;2.23;;;1.50;;
44746;SDS011;30472;49.490;10.972;2023-09-19T05:05:50;3.37;;;1.60;;
44746;SDS011;30472;49.490;10.972;2023-09-19T05:08:15;2.80;;;1.80;;
44746;SDS011;30472;49.490;10.972;2023-09-19T05:10:41;5.57;;;1.50;;
44746;SDS011;30472;49.490;10.972;2023-09-19T05:13:06;1.97;;;1.77;;
44746;SDS011;30472;49.490;10.972;2023-09-19T05:15:33;3.50;;;1.40;;
44746;SDS011;30472;49.490;10.972;2023-09-19T05:17:58;2.27;;;1.20;;
44746;SDS011;30472;49.490;10.972;2023-09-19T05:20:24;3.23;;;1.60;;
44746;SDS011;30472;49.490;10.972;2023-09-19T05:23:04;2.97;;;1.50;;
44746;SDS011;30472;49.490;10.972;2023-09-19T05:25:33;3.20;;;1.37;;
44746;SDS011;30472;49.490;10.972;2023-09-19T05:28:03;4.50;;;2.03;;
44746;SDS011;30472;49.490;10.972;2023-09-19T05:30:29;2.30;;;1.53;;
44746;SDS011;30472;49.490;10.972;2023-09-19T05:32:54;2.50;;;1.53;;
44746;SDS011;30472;49.490;10.972;2023-09-19T05:35:21;3.50;;;1.40;;
44746;SDS011;30472;49.490;10.972;2023-09-19T05:37:50;4.57;;;1.20;;
44746;SDS011;30472;49.490;10.972;2023-09-19T05:40:17;3.20;;;1.53;;
44746;SDS011;30472;49.490;10.972;2023-09-19T05:42:43;2.00;;;1.57;;
44746;SDS011;30472;49.490;10.972;2023-09-19T05:45:09;3.70;;;2.00;;
44746;SDS011;30472;49.490;10.972;2023-09-19T05:47:40;2.10;;;1.70;;
44746;SDS011;30472;49.490;10.972;2023-09-19T05:50:08;3.50;;;1.87;;
44746;SDS011;30472;49.490;10.972;2023-09-19T05:52:35;2.70;;;1.50;;
44746;SDS011;30472;49.490;10.972;2023-09-19T05:55:02;3.33;;;2.00;;
44746;SDS011;30472;49.490;10.972;2023-09-19T05:57:32;2.03;;;1.50;;
44746;SDS011;30472;49.490;10.972;2023-09-19T05:59:58;4.50;;;1.60;;
44746;SDS011;30472;49.490;10.972;2023-09-19T06:02:24;5.60;;;1.57;;
44746;SDS011;30472;49.490;10.972;2023-09-19T06:04:53;3.53;;;1.67;;
44746;SDS011;30472;49.490;10.972;2023-09-19T06:07:20;2.00;;;1.47;;
44746;SDS011;30472;49.490;10.972;2023-09-19T06:09:51;2.33;;;1.40;;
44746;SDS011;30472;49.490;10.972;2023-09-19T06:12:18;2.80;;;1.40;;
44746;SDS011;30472;49.490;10.972;2023-09-19T06:14:44;1.37;;;1.27;;
44746;SDS011;30472;49.490;10.972;2023-09-19T06:17:10;3.10;;;1.60;;
44746;SDS011;30472;49.490;10.972;2023-09-19T06:19:35;3.53;;;1.23;;
44746;SDS011;30472;49.490;10.972;2023-09-19T06:22:01;3.43;;;1.20;;
44746;SDS011;30472;49.490;10.972;2023-09-19T06:24:27;3.73;;;1.40;;
44746;SDS011;30472;49.490;10.972;2023-09-19T06:26:53;1.97;;;1.40;;
44746;SDS011;30472;49.490;10.972;2023-09-19T06:29:19;2.07;;;1.20;;
44746;SDS011;30472;49.490;10.972;2023-09-19T06:31:48;2.80;;;1.67;;
44746;SDS011;30472;49.490;10.972;2023-09-19T06:34:13;3.67;;;1.33;;
44746;SDS011;30472;49.490;10.972;2023-09-19T06:36:40;3.83;;;1.53;;
44746;SDS011;30472;49.490;10.972;2023-09-19T06:39:06;1.37;;;1.17;;
44746;SDS011;30472;49.490;10.972;2023-09-19T06:41:31;7.70;;;1.53;;
44746;SDS011;30472;49.490;10.972;2023-09-19T06:43:57;2.53;;;1.40;;
44746;SDS011;30472;49.490;10.972;2023-09-19T06:46:23;2.60;;;1.30;;
44746;SDS011;30472;49.490;10.972;2023-09-19T06:48:49;7.73;;;1.70;;
44746;SDS011;30472;49.490;10.972;2023-09-19T06:51:17;3.23;;;1.33;;
44746;SDS011;30472;49.490;10.972;2023-09-19T06:53:43;2.30;;;1.37;;
44746;SDS011;30472;49.490;10.972;2023-09-19T06:56:09;2.90;;;1.40;;
44746;SDS011;30472;49.490;10.972;2023-09-19T06:58:35;3.07;;;1.60;;
44746;SDS011;30472;49.490;10.972;2023-09-19T07:01:01;3.87;;;1.60;;
44746;SDS011;30472;49.490;10.972;2023-09-19T07:03:28;2.83;;;1.77;;
44746;SDS011;30472;49.490;10.972;2023-09-19T07:05:54;3.03;;;1.20;;
44746;SDS011;30472;49.490;10.972;2023-09-19T07:08:21;1.40;;;1.20;;
44746;SDS011;30472;49.490;10.972;2023-09-19T07:10:46;5.57;;;1.70;;
44746;SDS011;30472;49.490;10.972;2023-09-19T07:13:19;2.97;;;1.40;;
44746;SDS011;30472;49.490;10.972;2023-09-19T07:15:44;5.20;;;1.70;;
44746;SDS011;30472;49.490;10.972;2023-09-19T07:18:15;3.03;;;1.45;;
44746;SDS011;30472;49.490;10.972;2023-09-19T07:20:42;3.38;;;1.13;;
44746;SDS011;30472;49.490;10.972;2023-09-19T07:23:20;2.95;;;1.30;;
44746;SDS011;30472;49.490;10.972;2023-09-19T07:25:48;4.32;;;1.30;;
44746;SDS011;30472;49.490;10.972;2023-09-19T07:28:14;2.47;;;1.50;;
44746;SDS011;30472;49.490;10.972;2023-09-19T07:30:40;3.33;;;1.30;;
44746;SDS011;30472;49.490;10.972;2023-09-19T07:33:06;2.45;;;1.10;;
44746;SDS011;30472;49.490;10.972;2023-09-19T07:35:36;3.05;;;1.27;;
44746;SDS011;30472;49.490;10.972;2023-09-19T07:38:04;2.78;;;1.20;;
44746;SDS011;30472;49.490;10.972;2023-09-19T07:40:30;3.45;;;1.60;;
44746;SDS011;30472;49.490;10.972;2023-09-19T07:42:55;2.20;;;1.55;;
44746;SDS011;30472;49.490;10.972;2023-09-19T07:45:21;3.22;;;1.40;;
44746;SDS011;30472;49.490;10.972;2023-09-19T07:47:48;3.78;;;1.75;;
44746;SDS011;30472;49.490;10.972;2023-09-19T07:50:15;2.03;;;1.10;;
44746;SDS011;30472;49.490;10.972;2023-09-19T07:52:43;2.20;;;1.60;;
44746;SDS011;30472;49.490;10.972;2023-09-19T07:55:09;2.72;;;1.60;;
44746;SDS011;30472;49.490;10.972;2023-09-19T07:57:41;1.77;;;1.20;;
44746;SDS011;30472;49.490;10.972;2023-09-19T08:00:07;1.80;;;1.42;;
44746;SDS011;30472;49.490;10.972;2023-09-19T08:02:35;3.30;;;1.70;;
44746;SDS011;30472;49.490;10.972;2023-09-19T08:05:03;4.22;;;1.50;;
44746;SDS011;30472;49.490;10.972;2023-09-19T08:07:31;2.65;;;1.40;;
44746;SDS011;30472;49.490;10.972;2023-09-19T08:09:57;2.10;;;1.25;;
44746;SDS011;30472;49.490;10.972;2023-09-19T08:12:23;1.67;;;1.00;;
44746;SDS011;30472;49.490;10.972;2023-09-19T08:14:49;2.20;;;1.42;;
44746;SDS011;30472;49.490;10.972;2023-09-19T08:17:15;2.35;;;1.40;;
44746;SDS011;30472;49.490;10.972;2023-09-19T08:19:41;3.47;;;1.35;;
44746;SDS011;30472;49.490;10.972;2023-09-19T08:22:09;5.38;;;1.50;;
44746;SDS011;30472;49.490;10.972;2023-09-19T08:24:35;2.58;;;1.45;;
44746;SDS011;30472;49.490;10.972;2023-09-19T08:27:01;1.75;;;1.25;;
44746;SDS011;30472;49.490;10.972;2023-09-19T08:29:29;1.52;;;1.10;;
44746;SDS011;30472;49.490;10.972;2023-09-19T08:31:58;1.75;;;1.23;;
44746;SDS011;30472;49.490;10.972;2023-09-19T08:34:24;4.55;;;1.35;;
44746;SDS011;30472;49.490;10.972;2023-09-19T08:36:51;2.25;;;1.30;;
44746;SDS011;30472;49.490;10.972;2023-09-19T08:39:23;2.50;;;1.25;;
44746;SDS011;30472;49.490;10.972;2023-09-19T08:41:58;3.38;;;1.13;;
44746;SDS011;30472;49.490;10.972;2023-09-19T08:44:24;2.10;;;1.20;;
44746;SDS011;30472;49.490;10.972;2023-09-19T08:46:52;2.22;;;1.30;;
44746;SDS011;30472;49.490;10.972;2023-09-19T08:52:05;1.42;;;1.05;;
44746;SDS011;30472;49.490;10.972;2023-09-19T08:55:03;2.50;;;1.20;;
44746;SDS011;30472;49.490;10.972;2023-09-19T08:57:35;3.53;;;1.20;;
44746;SDS011;30472;49.490;10.972;2023-09-19T09:00:06;1.98;;;1.20;;
44746;SDS011;30472;49.490;10.972;2023-09-19T09:02:40;2.25;;;1.15;;
44746;SDS011;30472;49.490;10.972;2023-09-19T09:05:08;1.80;;;1.13;;
44746;SDS011;30472;49.490;10.972;2023-09-19T09:07:35;1.58;;;1.35;;
44746;SDS011;30472;49.490;10.972;2023-09-19T09:10:02;2.00;;;1.17;;
44746;SDS011;30472;49.490;10.972;2023-09-19T09:12:28;2.95;;;1.10;;
44746;SDS011;30472;49.490;10.972;2023-09-19T09:14:55;1.77;;;1.00;;
44746;SDS011;30472;49.490;10.972;2023-09-19T09:17:22;1.80;;;1.20;;
44746;SDS011;30472;49.490;10.972;2023-09-19T09:19:49;1.88;;;1.23;;
44746;SDS011;30472;49.490;10.972;2023-09-19T09:22:18;2.15;;;1.33;;
44746;SDS011;30472;49.490;10.972;2023-09-19T09:24:56;3.42;;;1.05;;
44746;SDS011;30472;49.490;10.972;2023-09-19T09:27:30;2.15;;;1.10;;
44746;SDS011;30472;49.490;10.972;2023-09-19T09:29:57;4.50;;;1.25;;
44746;SDS011;30472;49.490;10.972;2023-09-19T09:32:24;2.13;;;0.65;;
44746;SDS011;30472;49.490;10.972;2023-09-19T09:34:54;2.67;;;1.08;;
44746;SDS011;30472;49.490;10.972;2023-09-19T09:37:21;2.13;;;1.10;;
44746;SDS011;30472;49.490;10.972;2023-09-19T09:39:53;2.83;;;1.17;;
44746;SDS011;30472;49.490;10.972;2023-09-19T09:42:36;1.92;;;1.23;;
44746;SDS011;30472;49.490;10.972;2023-09-19T09:45:25;1.98;;;1.13;;
44746;SDS011;30472;49.490;10.972;2023-09-19T09:47:59;1.20;;;0.95;;
44746;SDS011;30472;49.490;10.972;2023-09-19T09:53:04;2.10;;;1.27;;
44746;SDS011;30472;49.490;10.972;2023-09-19T09:56:00;1.73;;;1.10;;
44746;SDS011;30472;49.490;10.972;2023-09-19T09:58:30;1.10;;;0.90;;
44746;SDS011;30472;49.490;10.972;2023-09-19T10:01:00;1.38;;;1.20;;
44746;SDS011;30472;49.490;10.972;2023-09-19T10:03:36;2.13;;;1.25;;
44746;SDS011;30472;49.490;10.972;2023-09-19T10:06:09;1.55;;;1.10;;
44746;SDS011;30472;49.490;10.972;2023-09-19T10:09:04;3.03;;;1.30;;
44746;SDS011;30472;49.490;10.972;2023-09-19T10:11:46;1.50;;;1.30;;
44746;SDS011;30472;49.490;10.972;2023-09-19T10:14:19;1.70;;;1.10;;
44746;SDS011;30472;49.490;10.972;2023-09-19T10:16:49;1.92;;;1.05;;
44746;SDS011;30472;49.490;10.972;2023-09-19T10:19:23;2.30;;;1.35;;
44746;SDS011;30472;49.490;10.972;2023-09-19T10:21:55;2.67;;;1.25;;
44746;SDS011;30472;49.490;10.972;2023-09-19T10:24:22;3.42;;;1.30;;
44746;SDS011;30472;49.490;10.972;2023-09-19T10:26:50;1.67;;;1.23;;
44746;SDS011;30472;49.490;10.972;2023-09-19T10:29:16;1.65;;;1.17;;
44746;SDS011;30472;49.490;10.972;2023-09-19T10:31:44;1.60;;;1.42;;
44746;SDS011;30472;49.490;10.972;2023-09-19T10:34:12;3.65;;;1.50;;
44746;SDS011;30472;49.490;10.972;2023-09-19T10:36:39;1.58;;;1.27;;
44746;SDS011;30472;49.490;10.972;2023-09-19T10:39:13;1.80;;;1.38;;
44746;SDS011;30472;49.490;10.972;2023-09-19T10:41:44;1.60;;;1.20;;
44746;SDS011;30472;49.490;10.972;2023-09-19T10:44:21;4.00;;;1.30;;
44746;SDS011;30472;49.490;10.972;2023-09-19T10:46:50;4.93;;;1.80;;
44746;SDS011;30472;49.490;10.972;2023-09-19T10:49:17;3.40;;;1.63;;
44746;SDS011;30472;49.490;10.972;2023-09-19T10:51:44;3.05;;;1.52;;
44746;SDS011;30472;49.490;10.972;2023-09-19T10:54:12;3.00;;;1.35;;
44746;SDS011;30472;49.490;10.972;2023-09-19T10:56:48;2.40;;;1.48;;
44746;SDS011;30472;49.490;10.972;2023-09-19T10:59:17;2.72;;;1.40;;
44746;SDS011;30472;49.490;10.972;2023-09-19T11:15:02;2.50;;;1.33;;
44746;SDS011;30472;49.490;10.972;2023-09-19T11:17:38;1.75;;;1.25;;
44746;SDS011;30472;49.490;10.972;2023-09-19T11:30:50;2.88;;;1.38;;
44746;SDS011;30472;49.490;10.972;2023-09-19T11:33:19;5.80;;;1.60;;
44746;SDS011;30472;49.490;10.972;2023-09-19T11:36:05;1.83;;;1.30;;
44746;SDS011;30472;49.490;10.972;2023-09-19T11:46:29;2.88;;;1.25;;
44746;SDS011;30472;49.490;10.972;2023-09-19T11:49:04;1.65;;;1.23;;
44746;SDS011;30472;49.490;10.972;2023-09-19T11:51:39;1.90;;;1.25;;
44746;SDS011;30472;49.490;10.972;2023-09-19T11:54:10;2.72;;;1.02;;
44746;SDS011;30472;49.490;10.972;2023-09-19T11:56:42;2.25;;;1.20;;
44746;SDS011;30472;49.490;10.972;2023-09-19T11:59:09;1.77;;;1.10;;
44746;SDS011;30472;49.490;10.972;2023-09-19T12:01:35;2.85;;;1.15;;
44746;SDS011;30472;49.490;10.972;2023-09-19T12:04:05;1.48;;;1.02;;
44746;SDS011;30472;49.490;10.972;2023-09-19T12:06:33;2.45;;;1.23;;
44746;SDS011;30472;49.490;10.972;2023-09-19T12:09:00;3.28;;;1.20;;
44746;SDS011;30472;49.490;10.972;2023-09-19T12:11:29;1.95;;;1.05;;
44746;SDS011;30472;49.490;10.972;2023-09-19T12:13:58;2.08;;;1.15;;
44746;SDS011;30472;49.490;10.972;2023-09-19T12:16:25;3.97;;;1.23;;
44746;SDS011;30472;49.490;10.972;2023-09-19T12:18:55;1.88;;;1.15;;
44746;SDS011;30472;49.490;10.972;2023-09-19T12:21:28;3.30;;;1.08;;
44746;SDS011;30472;49.490;10.972;2023-09-19T12:26:40;2.67;;;0.85;;
44746;SDS011;30472;49.490;10.972;2023-09-19T12:29:19;2.80;;;1.10;;
44746;SDS011;30472;49.490;10.972;2023-09-19T12:31:49;2.70;;;1.25;;
44746;SDS011;30472;49.490;10.972;2023-09-19T12:34:23;2.85;;;1.10;;
44746;SDS011;30472;49.490;10.972;2023-09-19T12:37:03;3.00;;;0.90;;
44746;SDS011;30472;49.490;10.972;2023-09-19T12:39:40;1.40;;;1.05;;
44746;SDS011;30472;49.490;10.972;2023-09-19T12:42:13;3.67;;;1.15;;
44746;SDS011;30472;49.490;10.972;2023-09-19T12:44:41;1.85;;;1.10;;
44746;SDS011;30472;49.490;10.972;2023-09-19T12:47:09;3.35;;;1.55;;
44746;SDS011;30472;49.490;10.972;2023-09-19T12:52:37;1.92;;;1.15;;
44746;SDS011;30472;49.490;10.972;2023-09-19T12:55:16;5.10;;;1.00;;
44746;SDS011;30472;49.490;10.972;2023-09-19T13:00:43;2.25;;;1.05;;
44746;SDS011;30472;49.490;10.972;2023-09-19T13:06:00;3.72;;;1.70;;
44746;SDS011;30472;49.490;10.972;2023-09-19T13:08:29;1.80;;;1.00;;
44746;SDS011;30472;49.490;10.972;2023-09-19T13:14:13;2.42;;;1.33;;
44746;SDS011;30472;49.490;10.972;2023-09-19T13:19:48;1.60;;;1.15;;
44746;SDS011;30472;49.490;10.972;2023-09-19T13:25:04;4.50;;;1.30;;
44746;SDS011;30472;49.490;10.972;2023-09-19T13:27:43;2.45;;;1.20;;
44746;SDS011;30472;49.490;10.972;2023-09-19T13:30:14;3.78;;;1.38;;
44746;SDS011;30472;49.490;10.972;2023-09-19T13:32:39;3.00;;;1.40;;
44746;SDS011;30472;49.490;10.972;2023-09-19T13:35:07;1.85;;;1.20;;
44746;SDS011;30472;49.490;10.972;2023-09-19T13:37:38;4.15;;;1.45;;
44746;SDS011;30472;49.490;10.972;2023-09-19T13:40:11;2.22;;;1.20;;
44746;SDS011;30472;49.490;10.972;2023-09-19T13:42:39;2.20;;;1.45;;
44746;SDS011;30472;49.490;10.972;2023-09-19T13:45:05;2.05;;;1.05;;
44746;SDS011;30472;49.490;10.972;2023-09-19T13:47:32;4.13;;;1.10;;
44746;SDS011;30472;49.490;10.972;2023-09-19T13:49:58;3.17;;;1.08;;
44746;SDS011;30472;49.490;10.972;2023-09-19T13:52:29;3.10;;;1.52;;
44746;SDS011;30472;49.490;10.972;2023-09-19T13:54:56;2.65;;;1.42;;
44746;SDS011;30472;49.490;10.972;2023-09-19T13:57:30;1.70;;;1.10;;
44746;SDS011;30472;49.490;10.972;2023-09-19T13:59:58;2.17;;;1.02;;
44746;SDS011;30472;49.490;10.972;2023-09-19T14:02:23;4.32;;;1.17;;
44746;SDS011;30472;49.490;10.972;2023-09-19T14:04:49;3.47;;;1.65;;
44746;SDS011;30472;49.490;10.972;2023-09-19T14:07:16;2.30;;;1.00;;
44746;SDS011;30472;49.490;10.972;2023-09-19T14:09:42;4.32;;;1.17;;
44746;SDS011;30472;49.490;10.972;2023-09-19T14:12:08;2.53;;;1.30;;
44746;SDS011;30472;49.490;10.972;2023-09-19T14:14:34;3.42;;;1.20;;
44746;SDS011;30472;49.490;10.972;2023-09-19T14:16:59;2.90;;;1.05;;
44746;SDS011;30472;49.490;10.972;2023-09-19T14:19:26;3.20;;;1.23;;
44746;SDS011;30472;49.490;10.972;2023-09-19T14:21:52;2.50;;;1.25;;
44746;SDS011;30472;49.490;10.972;2023-09-19T14:24:20;3.10;;;1.58;;
44746;SDS011;30472;49.490;10.972;2023-09-19T14:26:46;1.55;;;1.10;;
44746;SDS011;30472;49.490;10.972;2023-09-19T14:29:12;2.42;;;1.02;;
44746;SDS011;30472;49.490;10.972;2023-09-19T14:31:39;1.92;;;1.30;;
44746;SDS011;30472;49.490;10.972;2023-09-19T14:34:05;2.83;;;1.38;;
44746;SDS011;30472;49.490;10.972;2023-09-19T14:36:31;3.88;;;1.52;;
44746;SDS011;30472;49.490;10.972;2023-09-19T14:39:00;3.10;;;1.02;;
44746;SDS011;30472;49.490;10.972;2023-09-19T14:41:28;3.22;;;1.38;;
44746;SDS011;30472;49.490;10.972;2023-09-19T14:43:56;1.92;;;1.23;;
44746;SDS011;30472;49.490;10.972;2023-09-19T14:46:21;4.00;;;1.50;;
44746;SDS011;30472;49.490;10.972;2023-09-19T14:48:49;1.55;;;1.05;;
44746;SDS011;30472;49.490;10.972;2023-09-19T14:51:18;1.55;;;1.08;;
44746;SDS011;30472;49.490;10.972;2023-09-19T14:53:44;2.13;;;1.10;;
44746;SDS011;30472;49.490;10.972;2023-09-19T14:56:11;2.92;;;1.20;;
44746;SDS011;30472;49.490;10.972;2023-09-19T14:58:38;2.95;;;1.20;;
44746;SDS011;30472;49.490;10.972;2023-09-19T15:01:10;3.25;;;1.17;;
44746;SDS011;30472;49.490;10.972;2023-09-19T15:03:37;2.72;;;1.30;;
44746;SDS011;30472;49.490;10.972;2023-09-19T15:06:05;3.53;;;1.17;;
44746;SDS011;30472;49.490;10.972;2023-09-19T15:08:34;2.13;;;1.30;;
44746;SDS011;30472;49.490;10.972;2023-09-19T15:11:06;3.28;;;1.50;;
44746;SDS011;30472;49.490;10.972;2023-09-19T15:13:32;2.38;;;1.15;;
44746;SDS011;30472;49.490;10.972;2023-09-19T15:16:02;2.42;;;1.30;;
44746;SDS011;30472;49.490;10.972;2023-09-19T15:18:34;2.30;;;1.20;;
44746;SDS011;30472;49.490;10.972;2023-09-19T15:21:02;1.15;;;1.05;;
44746;SDS011;30472;49.490;10.972;2023-09-19T15:23:31;1.65;;;1.00;;
44746;SDS011;30472;49.490;10.972;2023-09-19T15:25:59;2.85;;;1.00;;
44746;SDS011;30472;49.490;10.972;2023-09-19T15:28:31;2.85;;;1.17;;
44746;SDS011;30472;49.490;10.972;2023-09-19T15:31:16;2.40;;;1.30;;
44746;SDS011;30472;49.490;10.972;2023-09-19T15:33:42;1.45;;;1.10;;
44746;SDS011;30472;49.490;10.972;2023-09-19T15:36:11;2.10;;;1.40;;
44746;SDS011;30472;49.490;10.972;2023-09-19T15:38:58;5.35;;;1.45;;
44746;SDS011;30472;49.490;10.972;2023-09-19T15:41:32;4.30;;;1.50;;
44746;SDS011;30472;49.490;10.972;2023-09-19T15:44:03;3.50;;;1.23;;
44746;SDS011;30472;49.490;10.972;2023-09-19T15:46:29;1.42;;;1.10;;